Time;durP1;ratioP1;P1;durP2;ratioP2;P2;SDS_P1;SDS_P2;PMS_P1;PMS_P2;Temp;Humidity;BMP_temperature;BMP_pressure;BME280_temperature;BME280_humidity;BME280_pressure;Samples;Min_cycle;Max_cycle;Signal;HPM_P1;HPM_P2
2022/10/25 03:00:29;;;;;;;0.80;0.50;;;21.20;51.10;;;;;;5922943;23;46253;31
2022/10/25 03:02:55;;;;;;;0.60;0.50;;;21.20;51.10;;;;;;4799700;29;47436;-62
2022/10/25 03:05:20;;;;;;;0.73;0.60;;;21.20;51.10;;;;;;4811679;29;45521;-62
2022/10/25 03:07:46;;;;;;;0.60;0.60;;;21.20;51.10;;;;;;4811424;29;45596;-62
2022/10/25 03:10:11;;;;;;;0.70;0.50;;;21.20;51.10;;;;;;4827476;29;45265;-62
2022/10/25 03:12:37;;;;;;;0.73;0.50;;;21.20;51.10;;;;;;4798747;29;44968;-62
2022/10/25 03:15:03;;;;;;;1.67;0.70;;;21.20;51.10;;;;;;4788136;29;46803;-63
2022/10/25 03:17:28;;;;;;;0.68;0.60;;;21.20;51.10;;;;;;4798183;29;45353;-62
2022/10/25 03:19:54;;;;;;;0.90;0.70;;;21.20;51.10;;;;;;4792645;29;45485;-62
2022/10/25 03:22:19;;;;;;;0.70;0.63;;;21.20;51.10;;;;;;4795785;29;45384;-62
2022/10/25 03:24:45;;;;;;;1.15;0.70;;;21.20;51.10;;;;;;4790749;29;45369;-62
2022/10/25 03:27:10;;;;;;;0.55;0.50;;;21.20;51.10;;;;;;4790624;29;45598;-62
2022/10/25 03:29:36;;;;;;;1.50;0.80;;;21.20;51.10;;;;;;4803093;29;44989;-62
2022/10/25 03:32:02;;;;;;;1.97;0.70;;;21.20;51.00;;;;;;4796972;29;45357;-62
2022/10/25 03:34:28;;;;;;;0.90;0.70;;;21.20;51.10;;;;;;4793248;29;45437;-62
2022/10/25 03:36:53;;;;;;;0.75;0.50;;;21.20;51.00;;;;;;4780961;29;45760;-62
2022/10/25 03:39:19;;;;;;;0.68;0.52;;;21.20;51.10;;;;;;4783167;29;45789;-62
2022/10/25 03:41:44;;;;;;;0.88;0.60;;;21.20;51.00;;;;;;4798814;29;45803;-62
2022/10/25 03:44:10;;;;;;;3.10;0.70;;;21.20;51.00;;;;;;4794999;29;47318;-62
2022/10/25 03:46:36;;;;;;;0.53;0.43;;;21.20;51.00;;;;;;4798954;29;44958;-62
2022/10/25 03:49:01;;;;;;;0.70;0.50;;;21.20;51.00;;;;;;4798223;29;45796;-62
2022/10/25 03:51:27;;;;;;;0.50;0.50;;;21.20;51.00;;;;;;4798124;29;45478;-62
2022/10/25 03:53:52;;;;;;;0.80;0.40;;;21.20;51.10;;;;;;4796140;29;45619;-62
2022/10/25 03:56:18;;;;;;;0.70;0.50;;;21.10;51.00;;;;;;4808489;29;45467;-62
2022/10/25 03:58:43;;;;;;;0.57;0.50;;;21.20;51.10;;;;;;4801452;29;45215;-62
2022/10/25 04:01:09;;;;;;;0.80;0.60;;;21.10;51.00;;;;;;4808568;29;45359;-62
2022/10/25 04:03:35;;;;;;;0.80;0.70;;;21.10;51.00;;;;;;4792273;29;47977;-62
2022/10/25 04:06:00;;;;;;;0.80;0.60;;;21.20;51.00;;;;;;4816909;29;45478;-62
2022/10/25 04:08:26;;;;;;;0.75;0.50;;;21.10;51.00;;;;;;4824860;29;47028;-62
2022/10/25 04:10:52;;;;;;;1.05;0.50;;;21.10;50.90;;;;;;4800941;29;44826;-62
2022/10/25 04:13:17;;;;;;;0.73;0.50;;;21.10;51.00;;;;;;4820472;29;48106;-62
2022/10/25 04:15:43;;;;;;;0.90;0.57;;;21.20;51.00;;;;;;4835266;29;45431;-62
2022/10/25 04:18:08;;;;;;;0.90;0.57;;;21.20;51.00;;;;;;4819259;29;45487;-62
2022/10/25 04:20:34;;;;;;;0.80;0.50;;;21.10;50.90;;;;;;4819652;29;45548;-63
2022/10/25 04:23:00;;;;;;;0.80;0.50;;;21.10;51.00;;;;;;4805375;29;45445;-62
2022/10/25 04:25:26;;;;;;;0.60;0.40;;;21.10;50.90;;;;;;4840962;29;45558;-62
2022/10/25 04:27:51;;;;;;;1.27;0.70;;;21.10;50.90;;;;;;4817108;29;45471;-62
2022/10/25 04:30:17;;;;;;;0.80;0.60;;;21.10;50.90;;;;;;4816286;29;45803;-62
2022/10/25 04:32:42;;;;;;;0.63;0.53;;;21.10;50.90;;;;;;4820585;29;47411;-62
2022/10/25 04:35:08;;;;;;;0.67;0.60;;;21.10;51.00;;;;;;4835124;29;44707;-62
2022/10/25 04:37:34;;;;;;;0.77;0.50;;;21.10;50.90;;;;;;4824849;29;46407;-62
2022/10/25 04:39:59;;;;;;;0.80;0.40;;;21.10;50.90;;;;;;4819878;29;45558;-62
2022/10/25 04:42:25;;;;;;;1.20;0.63;;;21.10;51.00;;;;;;4835518;29;45205;-62
2022/10/25 04:44:50;;;;;;;1.10;0.60;;;21.10;50.90;;;;;;4819207;29;45076;-62
2022/10/25 04:47:16;;;;;;;0.60;0.53;;;21.10;50.90;;;;;;4836423;29;45604;-62
2022/10/25 04:49:41;;;;;;;0.90;0.60;;;21.10;51.00;;;;;;4823873;29;44919;-62
2022/10/25 04:52:07;;;;;;;0.73;0.50;;;21.10;51.00;;;;;;4803904;29;47715;-62
2022/10/25 04:54:33;;;;;;;0.60;0.50;;;21.10;50.90;;;;;;4808411;29;45295;-62
2022/10/25 04:56:59;;;;;;;0.50;0.50;;;21.10;50.90;;;;;;4829878;29;45472;-63
2022/10/25 04:59:24;;;;;;;0.63;0.50;;;21.10;51.00;;;;;;4819899;29;46636;-62
2022/10/25 05:01:50;;;;;;;0.63;0.50;;;21.10;50.90;;;;;;4830250;29;45529;-62
2022/10/25 05:04:16;;;;;;;0.87;0.60;;;21.10;50.90;;;;;;4835048;29;45316;-64
2022/10/25 05:06:41;;;;;;;0.40;0.40;;;21.10;50.90;;;;;;4816986;29;45823;-63
2022/10/25 05:09:07;;;;;;;0.50;0.40;;;21.10;50.90;;;;;;4833712;29;44915;-63
2022/10/25 05:11:32;;;;;;;1.87;0.70;;;21.10;50.90;;;;;;4835709;29;45618;-63
2022/10/25 05:13:58;;;;;;;0.70;0.50;;;21.10;50.90;;;;;;4835494;29;45529;-63
2022/10/25 05:16:24;;;;;;;0.60;0.50;;;21.00;50.90;;;;;;4822102;29;45155;-63
2022/10/25 05:18:53;;;;;;;0.87;0.50;;;21.10;50.90;;;;;;4819434;29;44784;-63
2022/10/25 05:21:18;;;;;;;0.40;0.33;;;21.10;50.90;;;;;;4826393;29;48169;-63
2022/10/25 05:23:44;;;;;;;0.70;0.50;;;21.10;50.90;;;;;;4819095;29;45242;-63
2022/10/25 05:26:18;;;;;;;0.98;0.50;;;21.10;50.90;;;;;;4818437;29;45443;-63
2022/10/25 05:28:44;;;;;;;0.50;0.50;;;21.10;50.90;;;;;;4802209;29;44874;-63
2022/10/25 05:31:17;;;;;;;1.00;0.52;;;21.10;50.90;;;;;;4829631;29;45598;-63
2022/10/25 05:33:44;;;;;;;0.77;0.60;;;21.10;50.90;;;;;;4824200;29;44996;-63
2022/10/25 05:36:11;;;;;;;0.65;0.57;;;21.10;50.90;;;;;;4808387;29;45738;-63
2022/10/25 05:38:36;;;;;;;0.82;0.50;;;21.10;50.90;;;;;;4837169;29;45196;-63
2022/10/25 05:41:02;;;;;;;0.60;0.50;;;21.00;50.90;;;;;;4806160;29;46047;-63
2022/10/25 05:43:27;;;;;;;0.50;0.50;;;21.10;50.90;;;;;;4810867;29;45462;-63
2022/10/25 05:46:01;;;;;;;0.50;0.50;;;21.00;50.90;;;;;;4830438;29;45189;-63
2022/10/25 05:48:27;;;;;;;0.50;0.43;;;21.00;50.80;;;;;;4819806;29;45605;-63
2022/10/25 05:50:52;;;;;;;0.60;0.60;;;21.10;50.90;;;;;;4814026;29;45406;-63
2022/10/25 05:53:18;;;;;;;0.80;0.60;;;21.00;50.90;;;;;;4838683;29;44904;-63
2022/10/25 05:55:44;;;;;;;0.50;0.50;;;21.00;50.90;;;;;;4803077;29;45434;-63
2022/10/25 05:58:09;;;;;;;0.50;0.50;;;21.00;50.80;;;;;;4839402;29;45525;-63
2022/10/25 06:00:35;;;;;;;0.63;0.50;;;21.00;50.90;;;;;;4817891;29;45860;-63
2022/10/25 06:03:01;;;;;;;0.68;0.50;;;21.00;50.80;;;;;;4812808;29;45383;-62
2022/10/25 06:05:27;;;;;;;0.40;0.40;;;21.00;50.90;;;;;;4811195;29;45993;-64
2022/10/25 06:07:52;;;;;;;0.73;0.60;;;21.00;50.80;;;;;;4802347;29;45592;-63
2022/10/25 06:10:18;;;;;;;0.47;0.47;;;21.00;50.80;;;;;;4817874;29;45634;-62
2022/10/25 06:12:43;;;;;;;0.43;0.43;;;21.00;50.80;;;;;;4826136;29;45491;-63
2022/10/25 06:15:09;;;;;;;0.67;0.43;;;21.00;50.80;;;;;;4803838;29;45461;-63
2022/10/25 06:17:35;;;;;;;0.40;0.40;;;21.00;50.80;;;;;;4814497;29;45202;-64
2022/10/25 06:20:00;;;;;;;0.65;0.52;;;21.00;50.80;;;;;;4832798;29;46663;-63
2022/10/25 06:22:26;;;;;;;0.73;0.60;;;21.00;50.80;;;;;;4833747;29;45626;-63
2022/10/25 06:24:52;;;;;;;0.63;0.50;;;21.00;50.80;;;;;;4836069;29;44920;-64
2022/10/25 06:27:17;;;;;;;0.40;0.40;;;21.10;50.80;;;;;;4837612;29;44902;-64
2022/10/25 06:29:43;;;;;;;0.47;0.47;;;21.10;50.70;;;;;;4817220;29;45730;-62
2022/10/25 06:32:08;;;;;;;0.53;0.43;;;21.10;50.70;;;;;;4835384;29;44924;-63
2022/10/25 06:34:34;;;;;;;0.97;0.47;;;21.10;50.70;;;;;;4832070;29;45728;-63
2022/10/25 06:36:59;;;;;;;1.37;0.60;;;21.10;50.70;;;;;;4836688;29;45367;-63
2022/10/25 06:39:25;;;;;;;1.50;0.50;;;21.20;50.80;;;;;;4822958;29;46347;-64
2022/10/25 06:41:50;;;;;;;0.80;0.50;;;21.20;50.80;;;;;;4836290;29;45241;-63
2022/10/25 06:44:16;;;;;;;0.50;0.40;;;21.20;50.70;;;;;;4832086;29;45580;-63
2022/10/25 06:46:42;;;;;;;0.50;0.40;;;21.20;51.30;;;;;;4834876;29;45624;-63
2022/10/25 06:49:08;;;;;;;0.63;0.50;;;21.20;50.70;;;;;;4836485;29;45633;-63
2022/10/25 06:51:34;;;;;;;1.50;0.50;;;21.20;50.70;;;;;;4833270;29;45346;-63
2022/10/25 06:54:01;;;;;;;0.60;0.40;;;21.20;50.70;;;;;;4831695;29;44822;-64
2022/10/25 06:56:27;;;;;;;1.00;0.40;;;21.20;50.70;;;;;;4822898;29;45006;-63
2022/10/25 06:58:53;;;;;;;1.50;0.40;;;21.20;50.70;;;;;;4804308;29;45460;-62
2022/10/25 07:01:19;;;;;;;0.63;0.43;;;21.30;50.60;;;;;;4835459;29;45687;-62
2022/10/25 07:03:46;;;;;;;1.02;0.50;;;21.30;50.60;;;;;;4827155;29;45711;-63
2022/10/25 07:06:12;;;;;;;0.70;0.50;;;21.30;50.60;;;;;;4818072;29;45001;-63
2022/10/25 07:08:40;;;;;;;0.47;0.43;;;21.30;50.60;;;;;;4837214;29;45473;-64
2022/10/25 07:11:05;;;;;;;0.40;0.30;;;21.30;50.60;;;;;;4817448;29;45291;-62
2022/10/25 07:13:32;;;;;;;1.10;0.60;;;21.30;50.60;;;;;;4831255;29;45149;-63
2022/10/25 07:16:04;;;;;;;0.52;0.43;;;21.30;50.60;;;;;;4798985;29;45450;-63
2022/10/25 07:18:30;;;;;;;0.63;0.30;;;21.30;50.60;;;;;;4801743;29;45583;-63
2022/10/25 07:21:19;;;;;;;0.90;0.43;;;21.40;50.70;;;;;;4834243;29;45160;-63
2022/10/25 07:23:45;;;;;;;0.90;0.50;;;21.30;50.60;;;;;;4837098;29;44724;-63
2022/10/25 07:26:18;;;;;;;0.70;0.40;;;21.40;50.70;;;;;;4832262;29;45628;-64
2022/10/25 07:28:45;;;;;;;5.40;0.60;;;21.40;50.70;;;;;;4834097;29;45058;-63
2022/10/25 07:31:11;;;;;;;0.73;0.50;;;21.40;50.60;;;;;;4819559;29;45035;-63
2022/10/25 07:33:37;;;;;;;0.50;0.50;;;21.40;50.60;;;;;;4834853;29;44965;-63
2022/10/25 07:36:03;;;;;;;1.60;0.50;;;21.40;50.60;;;;;;4819491;29;45475;-63
2022/10/25 07:38:28;;;;;;;0.60;0.30;;;21.40;50.60;;;;;;4832299;29;45485;-63
2022/10/25 07:40:55;;;;;;;0.40;0.40;;;21.40;50.60;;;;;;4832538;29;45459;-63
2022/10/25 07:43:21;;;;;;;1.90;0.40;;;21.50;50.60;;;;;;4837437;29;45477;-62
2022/10/25 07:45:48;;;;;;;1.13;0.40;;;21.50;50.60;;;;;;4805600;29;45490;-64
2022/10/25 07:48:14;;;;;;;0.40;0.30;;;21.50;50.60;;;;;;4801669;29;47172;-63
2022/10/25 07:50:39;;;;;;;0.60;0.40;;;21.50;50.60;;;;;;4820698;29;45570;-63
2022/10/25 07:53:05;;;;;;;0.50;0.40;;;21.50;50.50;;;;;;4816994;29;45483;-62
2022/10/25 07:55:31;;;;;;;0.43;0.40;;;21.50;50.50;;;;;;4832069;29;45241;-63
2022/10/25 07:58:03;;;;;;;1.00;0.50;;;21.50;50.40;;;;;;4834447;29;45578;-63
2022/10/25 08:00:29;;;;;;;0.40;0.40;;;21.60;50.50;;;;;;4829864;29;45014;-63
2022/10/25 08:02:55;;;;;;;0.67;0.40;;;21.50;50.50;;;;;;4817531;29;45472;-63
2022/10/25 08:05:21;;;;;;;0.50;0.40;;;21.50;50.50;;;;;;4820024;29;44680;-64
2022/10/25 08:07:48;;;;;;;0.60;0.40;;;21.60;50.50;;;;;;4787277;29;45282;-64
2022/10/25 08:10:13;;;;;;;0.40;0.37;;;21.60;50.50;;;;;;4815441;29;44824;-63
2022/10/25 08:12:39;;;;;;;0.45;0.45;;;21.60;50.50;;;;;;4833037;29;46405;-64
2022/10/25 08:15:05;;;;;;;0.43;0.32;;;21.60;50.50;;;;;;4834457;29;44918;-63
2022/10/25 08:17:30;;;;;;;0.60;0.60;;;21.60;50.40;;;;;;4834489;29;46244;-63
2022/10/25 08:19:56;;;;;;;0.53;0.40;;;21.70;50.40;;;;;;4835883;29;45207;-64
2022/10/25 08:22:21;;;;;;;0.37;0.37;;;21.60;50.40;;;;;;4818699;29;45634;-63
2022/10/25 08:24:47;;;;;;;0.77;0.47;;;21.70;50.40;;;;;;4834906;29;44987;-63
2022/10/25 08:27:13;;;;;;;0.90;0.40;;;21.70;50.40;;;;;;4835387;29;45490;-63
2022/10/25 08:29:38;;;;;;;0.40;0.40;;;21.70;50.40;;;;;;4817918;29;45250;-63
2022/10/25 08:32:04;;;;;;;0.57;0.40;;;21.70;50.30;;;;;;4835115;29;45217;-63
2022/10/25 08:34:29;;;;;;;0.45;0.35;;;21.70;50.40;;;;;;4806348;29;45040;-63
2022/10/25 08:36:55;;;;;;;1.40;0.40;;;21.70;50.30;;;;;;4816816;29;45400;-63
2022/10/25 08:39:20;;;;;;;0.80;0.60;;;21.70;50.30;;;;;;4839321;29;45742;-61
2022/10/25 08:41:52;;;;;;;0.57;0.40;;;21.70;50.30;;;;;;4832082;29;45674;-64
2022/10/25 08:44:42;;;;;;;0.63;0.40;;;21.80;50.30;;;;;;4818929;29;45635;-62
2022/10/25 08:47:30;;;;;;;0.70;0.60;;;21.80;50.30;;;;;;4837275;29;45509;-62
2022/10/25 08:50:11;;;;;;;0.90;0.50;;;21.80;50.40;;;;;;4835238;29;45318;-62
2022/10/25 08:53:08;;;;;;;0.90;0.40;;;21.80;50.30;;;;;;4807178;29;45677;-63
2022/10/25 08:55:34;;;;;;;0.53;0.40;;;21.80;50.30;;;;;;4805230;29;45458;-62
2022/10/25 08:58:01;;;;;;;0.77;0.47;;;21.80;50.20;;;;;;4820416;29;46102;-63
2022/10/25 09:00:30;;;;;;;0.40;0.40;;;21.80;50.20;;;;;;4815122;29;45357;-63
2022/10/25 09:02:56;;;;;;;0.32;0.32;;;21.80;50.20;;;;;;4832601;29;45904;-63
2022/10/25 09:05:41;;;;;;;1.70;0.40;;;21.80;50.20;;;;;;4836458;29;45499;-63
2022/10/25 09:08:21;;;;;;;1.73;0.50;;;21.80;50.20;;;;;;4837224;29;45448;-63
2022/10/25 09:10:54;;;;;;;0.70;0.40;;;21.80;50.20;;;;;;4819728;29;45173;-63
2022/10/25 09:13:36;;;;;;;1.10;0.40;;;21.80;50.20;;;;;;4807380;29;44822;-63
2022/10/25 09:16:11;;;;;;;0.83;0.50;;;21.90;50.30;;;;;;4819833;29;45054;-63
2022/10/25 09:18:42;;;;;;;0.57;0.40;;;21.90;50.20;;;;;;4836580;29;46868;-63
2022/10/25 09:21:15;;;;;;;0.30;0.28;;;21.90;50.20;;;;;;4805616;29;45417;-63
2022/10/25 09:23:41;;;;;;;0.60;0.40;;;21.90;50.10;;;;;;4804571;29;45252;-62
2022/10/25 09:26:39;;;;;;;0.70;0.40;;;21.90;50.20;;;;;;4821302;29;45427;-63
2022/10/25 09:29:30;;;;;;;0.45;0.40;;;21.90;50.10;;;;;;4822781;29;46158;-63
2022/10/25 09:31:57;;;;;;;0.47;0.47;;;21.90;50.10;;;;;;4820298;29;45368;-63
2022/10/25 09:34:22;;;;;;;1.43;0.40;;;21.90;50.10;;;;;;4790326;29;45450;-63
2022/10/25 09:36:51;;;;;;;0.60;0.40;;;21.90;50.10;;;;;;4814912;29;46523;-63
2022/10/25 09:39:39;;;;;;;0.52;0.40;;;21.90;50.10;;;;;;4808938;29;45388;-63
2022/10/25 09:42:06;;;;;;;2.50;0.40;;;21.90;50.10;;;;;;4812499;29;45318;-63
2022/10/25 09:44:39;;;;;;;0.40;0.38;;;21.90;50.10;;;;;;4822897;29;45589;-63
2022/10/25 09:47:10;;;;;;;0.40;0.40;;;21.90;50.10;;;;;;4820981;29;45378;-63
2022/10/25 09:49:42;;;;;;;1.48;0.40;;;21.90;50.00;;;;;;4814272;29;45787;-63
2022/10/25 09:52:27;;;;;;;0.47;0.47;;;21.90;50.00;;;;;;4835251;29;45281;-63
2022/10/25 09:55:18;;;;;;;1.03;0.40;;;21.90;50.00;;;;;;4827700;29;45440;-62
2022/10/25 09:57:45;;;;;;;0.63;0.40;;;21.90;50.10;;;;;;4833707;29;44932;-63
2022/10/25 10:00:13;;;;;;;0.55;0.50;;;21.90;50.10;;;;;;4817481;29;45397;-63
2022/10/25 10:02:40;;;;;;;1.20;0.50;;;21.90;50.10;;;;;;4803605;29;45112;-63
2022/10/25 10:05:12;;;;;;;0.60;0.40;;;21.90;50.10;;;;;;4805646;29;45393;-63
2022/10/25 10:07:38;;;;;;;0.63;0.40;;;21.90;50.00;;;;;;4820424;29;45182;-63
2022/10/25 10:10:06;;;;;;;0.50;0.50;;;21.90;50.00;;;;;;4804386;29;46899;-63
2022/10/25 10:12:42;;;;;;;1.08;0.40;;;21.90;50.00;;;;;;4819205;29;45647;-62
2022/10/25 10:15:17;;;;;;;0.43;0.30;;;21.90;50.00;;;;;;4820328;29;44753;-63
2022/10/25 10:17:42;;;;;;;0.70;0.30;;;21.90;50.00;;;;;;4805595;29;45457;-63
2022/10/25 10:20:13;;;;;;;0.40;0.30;;;21.90;50.00;;;;;;4817948;29;45202;-63
2022/10/25 10:22:52;;;;;;;0.80;0.43;;;21.90;50.00;;;;;;4809035;29;44756;-62
2022/10/25 10:25:25;;;;;;;0.52;0.43;;;21.90;50.60;;;;;;4799839;29;45230;-63
2022/10/25 10:27:52;;;;;;;1.10;0.50;;;21.90;50.00;;;;;;4830522;29;45725;-63
2022/10/25 10:30:37;;;;;;;0.93;0.50;;;21.90;50.00;;;;;;4832341;29;45743;-63
2022/10/25 10:33:05;;;;;;;1.30;0.52;;;21.90;50.00;;;;;;4834289;29;45173;-63
2022/10/25 10:35:32;;;;;;;0.65;0.40;;;21.90;49.90;;;;;;4795381;29;45563;-64
2022/10/25 10:38:19;;;;;;;0.90;0.40;;;21.90;49.90;;;;;;4807084;29;45473;-64
2022/10/25 10:40:45;;;;;;;0.63;0.40;;;21.90;49.90;;;;;;4809515;29;46349;-63
2022/10/25 10:43:30;;;;;;;0.57;0.30;;;22.00;50.00;;;;;;4836161;29;44961;-63
2022/10/25 10:46:01;;;;;;;0.50;0.38;;;22.00;50.00;;;;;;4808698;29;45221;-63
2022/10/25 10:48:27;;;;;;;0.50;0.40;;;22.00;50.00;;;;;;4819361;29;45591;-63
2022/10/25 10:50:53;;;;;;;0.50;0.40;;;22.00;50.00;;;;;;4798461;29;45421;-63
2022/10/25 10:53:24;;;;;;;0.50;0.40;;;22.00;50.00;;;;;;4819577;29;45475;-63
2022/10/25 10:55:53;;;;;;;0.55;0.43;;;22.00;50.00;;;;;;4812841;29;45524;-63
2022/10/25 10:58:33;;;;;;;1.10;0.50;;;22.00;50.00;;;;;;4817705;29;45268;-63
2022/10/25 11:01:01;;;;;;;0.50;0.47;;;22.00;50.10;;;;;;4801383;29;45400;-61
2022/10/25 11:03:56;;;;;;;1.42;0.40;;;22.00;50.10;;;;;;4830851;29;45400;-61
2022/10/25 11:06:29;;;;;;;1.63;0.60;;;22.00;50.10;;;;;;4816294;29;45532;-63
2022/10/25 11:09:14;;;;;;;0.80;0.40;;;22.00;50.10;;;;;;4839251;29;45504;-62
2022/10/25 11:11:40;;;;;;;0.80;0.35;;;22.00;50.10;;;;;;4834879;29;46229;-63
2022/10/25 11:14:12;;;;;;;1.57;0.40;;;22.10;50.10;;;;;;4818355;29;45102;-63
2022/10/25 11:16:57;;;;;;;1.27;0.47;;;22.10;50.10;;;;;;4816686;29;45308;-63
2022/10/25 11:19:54;;;;;;;1.20;0.47;;;22.10;50.10;;;;;;4835372;29;45344;-62
2022/10/25 11:22:41;;;;;;;0.93;0.40;;;22.10;50.10;;;;;;4831716;29;45517;-63
2022/10/25 11:25:43;;;;;;;0.52;0.40;;;22.10;50.10;;;;;;4806119;29;45198;-62
2022/10/25 11:28:36;;;;;;;0.55;0.40;;;22.10;50.10;;;;;;4789050;29;45319;-62
2022/10/25 11:31:29;;;;;;;0.70;0.30;;;22.10;50.10;;;;;;4833911;29;44785;-62
2022/10/25 11:34:15;;;;;;;0.80;0.50;;;22.10;50.20;;;;;;4811696;29;45451;-62
2022/10/25 11:37:00;;;;;;;0.95;0.47;;;22.10;50.10;;;;;;4835167;29;45286;-62
2022/10/25 11:39:46;;;;;;;0.30;0.30;;;22.10;50.10;;;;;;4817555;29;44911;-61
2022/10/25 11:42:28;;;;;;;0.50;0.40;;;22.20;50.10;;;;;;4834406;29;45220;-62
2022/10/25 11:45:21;;;;;;;0.55;0.40;;;22.20;50.10;;;;;;4834417;29;46537;-63
2022/10/25 11:48:09;;;;;;;1.20;0.60;;;22.20;50.10;;;;;;4835637;29;45601;-63
2022/10/25 11:50:42;;;;;;;1.50;0.40;;;22.20;50.10;;;;;;4812673;29;45234;-62
2022/10/25 11:53:16;;;;;;;0.45;0.40;;;22.20;50.10;;;;;;4802887;29;44939;-62
2022/10/25 11:55:48;;;;;;;1.05;0.50;;;22.20;50.10;;;;;;4828691;29;47150;-62
2022/10/25 11:58:44;;;;;;;1.67;0.40;;;22.20;50.10;;;;;;4820220;29;45833;-62
2022/10/25 12:01:18;;;;;;;0.50;0.30;;;22.20;50.00;;;;;;4803485;29;45210;-62
2022/10/25 12:04:04;;;;;;;0.73;0.40;;;22.20;50.00;;;;;;4833617;29;45418;-61
2022/10/25 12:06:45;;;;;;;0.53;0.40;;;22.20;50.00;;;;;;4831740;29;45201;-63
2022/10/25 12:09:32;;;;;;;1.50;0.50;;;22.20;50.00;;;;;;4801456;29;45675;-63
2022/10/25 12:12:04;;;;;;;0.65;0.40;;;22.30;50.10;;;;;;4836584;29;45707;-62
2022/10/25 12:14:32;;;;;;;0.70;0.38;;;22.30;50.10;;;;;;4804373;29;45211;-63
2022/10/25 12:16:58;;;;;;;0.60;0.40;;;22.30;50.00;;;;;;4805830;29;46402;-63
2022/10/25 12:19:26;;;;;;;0.63;0.40;;;22.30;50.00;;;;;;4823687;29;45308;-62
2022/10/25 12:22:04;;;;;;;1.15;0.60;;;22.30;50.00;;;;;;4803543;29;45259;-62
2022/10/25 12:24:40;;;;;;;1.08;0.40;;;22.30;50.00;;;;;;4809996;29;45033;-63
2022/10/25 12:27:06;;;;;;;0.60;0.40;;;22.30;50.00;;;;;;4826315;29;46010;-62
2022/10/25 12:29:38;;;;;;;0.75;0.47;;;22.30;50.30;;;;;;4811617;29;44882;-63
2022/10/25 12:32:19;;;;;;;2.20;0.40;;;22.30;50.00;;;;;;4806437;29;45344;-63
2022/10/25 12:34:54;;;;;;;2.00;0.50;;;22.30;50.00;;;;;;4813259;29;45312;-63
2022/10/25 12:37:37;;;;;;;0.50;0.40;;;22.30;50.00;;;;;;4818899;29;45345;-63
2022/10/25 12:40:04;;;;;;;0.87;0.33;;;22.40;50.00;;;;;;4823772;29;45099;-62
2022/10/25 12:42:40;;;;;;;0.60;0.50;;;22.40;50.00;;;;;;4825542;29;45254;-63
2022/10/25 12:45:08;;;;;;;0.70;0.40;;;22.40;50.00;;;;;;4808630;29;45264;-62
2022/10/25 12:48:05;;;;;;;1.23;0.50;;;22.40;50.00;;;;;;4846817;29;45913;-62
2022/10/25 12:50:46;;;;;;;0.88;0.50;;;22.40;50.00;;;;;;4817576;29;45456;-63
2022/10/25 12:53:31;;;;;;;1.50;0.50;;;22.40;50.00;;;;;;4822783;29;45293;-62
2022/10/25 12:56:27;;;;;;;0.82;0.40;;;22.40;50.00;;;;;;4838623;29;45576;-63
2022/10/25 12:59:17;;;;;;;0.57;0.40;;;22.40;50.00;;;;;;4836125;29;44894;-62
2022/10/25 13:01:52;;;;;;;0.80;0.40;;;22.40;50.00;;;;;;4837278;29;45286;-61
2022/10/25 13:04:52;;;;;;;1.17;0.40;;;22.40;50.00;;;;;;4833130;29;44799;-63
2022/10/25 13:07:18;;;;;;;1.20;0.40;;;22.50;50.00;;;;;;4825238;29;45227;-63
2022/10/25 13:09:43;;;;;;;0.80;0.50;;;22.50;50.10;;;;;;4806754;29;45266;-63
2022/10/25 13:12:21;;;;;;;0.60;0.50;;;22.50;50.00;;;;;;4838769;29;45499;-63
2022/10/25 13:14:51;;;;;;;1.00;0.40;;;22.50;50.00;;;;;;4825431;29;45394;-64
2022/10/25 13:17:17;;;;;;;0.80;0.50;;;22.50;50.00;;;;;;4840918;29;45169;-63
2022/10/25 13:19:43;;;;;;;1.60;0.57;;;22.50;50.00;;;;;;4840674;29;45094;-63
2022/10/25 13:22:31;;;;;;;1.33;0.50;;;22.50;50.00;;;;;;4818761;29;44686;-62
2022/10/25 13:25:01;;;;;;;0.80;0.40;;;22.50;50.00;;;;;;4839898;29;45696;-63
2022/10/25 13:27:31;;;;;;;0.80;0.40;;;22.50;50.00;;;;;;4823793;29;45509;-63
2022/10/25 13:30:03;;;;;;;0.77;0.50;;;22.50;50.00;;;;;;4821479;29;45608;-63
2022/10/25 13:32:33;;;;;;;1.20;0.40;;;22.50;50.00;;;;;;4822734;29;45403;-63
2022/10/25 13:34:58;;;;;;;0.80;0.40;;;22.50;50.00;;;;;;4839566;29;45411;-63
2022/10/25 13:37:38;;;;;;;0.97;0.50;;;22.50;50.00;;;;;;4838335;29;45404;-63
2022/10/25 13:40:24;;;;;;;1.23;0.40;;;22.60;50.00;;;;;;4821451;29;45693;-63
2022/10/25 13:43:15;;;;;;;1.40;0.40;;;22.50;50.00;;;;;;4815641;29;44707;-63
2022/10/25 13:45:43;;;;;;;0.63;0.50;;;22.50;50.00;;;;;;4824187;29;45238;-62
2022/10/25 13:48:12;;;;;;;0.77;0.40;;;22.50;50.00;;;;;;4806256;29;45027;-62
2022/10/25 13:50:41;;;;;;;0.47;0.47;;;22.50;50.00;;;;;;4835070;29;46846;-62
2022/10/25 13:53:21;;;;;;;0.60;0.38;;;22.50;50.00;;;;;;4823043;29;45201;-62
2022/10/25 13:56:03;;;;;;;0.45;0.40;;;22.60;50.00;;;;;;4839163;29;45233;-62
2022/10/25 13:58:29;;;;;;;0.80;0.50;;;22.50;50.00;;;;;;4796087;29;45262;-62
2022/10/25 14:00:55;;;;;;;0.98;0.50;;;22.50;50.00;;;;;;4838794;29;45238;-63
2022/10/25 14:03:44;;;;;;;1.52;0.60;;;22.60;50.00;;;;;;4839468;29;45628;-62
2022/10/25 14:06:11;;;;;;;0.70;0.47;;;22.60;50.00;;;;;;4829598;29;45191;-62
2022/10/25 14:08:42;;;;;;;0.90;0.50;;;22.60;50.00;;;;;;4808507;29;44861;-62
2022/10/25 14:11:17;;;;;;;0.70;0.50;;;22.60;50.00;;;;;;4831716;29;45044;-62
2022/10/25 14:14:21;;;;;;;0.40;0.40;;;22.60;50.00;;;;;;4833613;29;46331;-62
2022/10/25 14:17:02;;;;;;;1.40;0.60;;;22.60;50.00;;;;;;4839572;29;45263;-63
2022/10/25 14:19:42;;;;;;;1.60;0.60;;;22.60;50.00;;;;;;4812590;29;44828;-64
2022/10/25 14:22:19;;;;;;;1.30;0.43;;;22.60;50.00;;;;;;4829407;29;45179;-62
2022/10/25 14:24:47;;;;;;;0.50;0.40;;;22.60;50.00;;;;;;4823557;29;45498;-62
2022/10/25 14:27:32;;;;;;;0.98;0.50;;;22.60;50.00;;;;;;4807359;29;45159;-62
2022/10/25 14:30:32;;;;;;;0.95;0.40;;;22.60;50.00;;;;;;4833442;29;44827;-62
2022/10/25 14:32:59;;;;;;;0.70;0.50;;;22.60;50.00;;;;;;4809633;29;46515;-63
2022/10/25 14:35:45;;;;;;;0.80;0.30;;;22.60;50.00;;;;;;4840464;29;45589;-62
2022/10/25 14:38:15;;;;;;;1.65;0.45;;;22.60;50.00;;;;;;4832983;29;45650;-63
2022/10/25 14:40:40;;;;;;;2.30;0.80;;;22.60;50.00;;;;;;4823507;29;45736;-63
2022/10/25 14:43:28;;;;;;;1.77;0.50;;;22.60;49.90;;;;;;4790069;29;46491;-62
2022/10/25 14:46:01;;;;;;;0.77;0.40;;;22.60;50.00;;;;;;4834652;29;45450;-62
2022/10/25 14:48:27;;;;;;;1.73;0.52;;;22.70;50.00;;;;;;4807846;29;45874;-62
2022/10/25 14:50:53;;;;;;;1.10;0.40;;;22.70;50.00;;;;;;4809663;29;45777;-62
2022/10/25 14:53:19;;;;;;;0.50;0.30;;;22.70;50.00;;;;;;4822924;29;46349;-62
2022/10/25 14:55:58;;;;;;;1.48;0.40;;;22.60;50.00;;;;;;4811141;29;45062;-62
2022/10/25 14:58:24;;;;;;;0.65;0.43;;;22.70;50.00;;;;;;4812634;29;44902;-68
2022/10/25 15:01:00;;;;;;;1.10;0.43;;;22.70;50.00;;;;;;4798783;29;44904;-62
2022/10/25 15:03:27;;;;;;;0.93;0.50;;;22.70;50.00;;;;;;4821643;29;48555;-62
2022/10/25 15:05:53;;;;;;;0.93;0.60;;;22.70;49.90;;;;;;4822810;29;45165;-63
2022/10/25 15:08:20;;;;;;;1.33;0.40;;;22.70;49.90;;;;;;4838093;29;46293;-63
2022/10/25 15:10:48;;;;;;;2.00;0.40;;;22.70;50.00;;;;;;4822030;29;44701;-61
2022/10/25 15:13:27;;;;;;;0.80;0.40;;;22.70;50.00;;;;;;4838699;29;45392;-62
2022/10/25 15:15:53;;;;;;;1.20;0.47;;;22.70;50.00;;;;;;4837853;29;45366;-60
2022/10/25 15:18:33;;;;;;;1.75;0.43;;;22.70;50.00;;;;;;4809241;29;45362;-63
2022/10/25 15:21:10;;;;;;;0.80;0.40;;;22.70;50.00;;;;;;4831846;29;45511;-62
2022/10/25 15:23:40;;;;;;;0.88;0.40;;;22.70;50.00;;;;;;4824788;29;45589;-62
2022/10/25 15:26:28;;;;;;;1.30;0.52;;;22.70;50.00;;;;;;4812196;29;45227;-62
2022/10/25 15:28:58;;;;;;;1.10;0.40;;;22.70;50.00;;;;;;4836745;29;46206;-62
2022/10/25 15:31:29;;;;;;;0.55;0.40;;;22.70;50.00;;;;;;4840715;29;45518;-63
2022/10/25 15:34:02;;;;;;;0.80;0.40;;;22.70;50.00;;;;;;4815287;29;46338;-62
2022/10/25 15:36:28;;;;;;;1.70;0.40;;;22.70;50.00;;;;;;4835649;29;45419;-61
2022/10/25 15:38:59;;;;;;;0.90;0.40;;;22.70;50.00;;;;;;4822894;29;44910;-62
2022/10/25 15:41:25;;;;;;;0.93;0.50;;;22.70;50.00;;;;;;4837476;29;45449;-62
2022/10/25 15:43:51;;;;;;;1.05;0.50;;;22.70;50.10;;;;;;4810880;29;47490;-62
2022/10/25 15:46:32;;;;;;;0.47;0.40;;;22.70;50.00;;;;;;4824347;29;45217;-62
2022/10/25 15:49:03;;;;;;;0.70;0.40;;;22.70;50.00;;;;;;4815349;29;45405;-63
2022/10/25 15:51:30;;;;;;;1.70;0.40;;;22.70;50.00;;;;;;4819866;29;45268;-63
2022/10/25 15:53:56;;;;;;;1.23;0.45;;;22.70;50.00;;;;;;4795403;29;46239;-62
2022/10/25 15:56:22;;;;;;;0.80;0.50;;;22.70;50.00;;;;;;4838863;29;45150;-62
2022/10/25 15:58:47;;;;;;;0.43;0.37;;;22.70;50.00;;;;;;4838162;29;45283;-62
2022/10/25 16:01:13;;;;;;;0.93;0.60;;;22.70;50.10;;;;;;4834575;29;45554;-62
2022/10/25 16:03:38;;;;;;;2.57;0.60;;;22.70;50.00;;;;;;4804616;29;48000;-62
2022/10/25 16:06:04;;;;;;;0.87;0.50;;;22.70;50.10;;;;;;4823740;29;44787;-62
2022/10/25 16:08:30;;;;;;;1.07;0.40;;;22.70;50.10;;;;;;4823748;29;46254;-60